Time;durP1;ratioP1;P1;durP2;ratioP2;P2;SDS_P1;SDS_P2;PMS_P1;PMS_P2;Temp;Humidity;BMP_temperature;BMP_pressure;BME280_temperature;BME280_humidity;BME280_pressure;Samples;Min_cycle;Max_cycle;Signal;HPM_P1;HPM_P2
2021/06/13 00:00:27;;;;;;;5.38;1.52;;;;;;;;;;4937064;28;20482;-75
2021/06/13 00:02:53;;;;;;;7.93;1.60;;;;;;;;;;4928386;28;20059;-74
2021/06/13 00:05:20;;;;;;;4.78;1.30;;;;;;;;;;4936668;28;20063;-73
2021/06/13 00:07:46;;;;;;;3.65;1.42;;;;;;;;;;4945192;28;20066;-74
2021/06/13 00:10:14;;;;;;;4.15;1.45;;;;;;;;;;4945782;28;20074;-75
2021/06/13 00:12:41;;;;;;;5.25;1.30;;;;;;;;;;4946444;28;20597;-75
2021/06/13 00:15:10;;;;;;;4.03;1.50;;;;;;;;;;4948508;28;20071;-75
2021/06/13 00:17:36;;;;;;;5.30;1.50;;;;;;;;;;4953487;28;20063;-75
2021/06/13 00:20:05;;;;;;;4.80;1.60;;;;;;;;;;4945819;28;20078;-75
2021/06/13 00:22:32;;;;;;;4.05;1.52;;;;;;;;;;4942082;28;20149;-74
2021/06/13 00:24:58;;;;;;;5.35;1.50;;;;;;;;;;4943313;28;20063;-74
2021/06/13 00:27:25;;;;;;;6.35;1.65;;;;;;;;;;4942205;28;20065;-74
2021/06/13 00:29:51;;;;;;;4.20;1.33;;;;;;;;;;4951941;28;20071;-75
2021/06/13 00:32:17;;;;;;;5.18;1.73;;;;;;;;;;4947222;28;20062;-74
2021/06/13 00:34:44;;;;;;;5.18;1.50;;;;;;;;;;4944788;28;20070;-76
2021/06/13 00:37:10;;;;;;;4.78;1.38;;;;;;;;;;4948869;28;20071;-76
2021/06/13 00:39:36;;;;;;;4.40;1.50;;;;;;;;;;4944876;28;20170;-76
2021/06/13 00:42:03;;;;;;;4.60;1.40;;;;;;;;;;4947032;28;20070;-74
2021/06/13 00:44:29;;;;;;;5.22;1.55;;;;;;;;;;4949428;28;20078;-74
2021/06/13 00:46:56;;;;;;;5.00;1.75;;;;;;;;;;4950877;28;20055;-75
2021/06/13 00:49:22;;;;;;;5.70;1.23;;;;;;;;;;4932478;28;21562;-75
2021/06/13 00:51:49;;;;;;;4.80;1.38;;;;;;;;;;4943770;28;20062;-75
2021/06/13 00:54:15;;;;;;;3.70;1.30;;;;;;;;;;4945494;28;20079;-75
2021/06/13 00:56:41;;;;;;;5.13;1.73;;;;;;;;;;4950127;28;20110;-75
2021/06/13 00:59:08;;;;;;;4.40;1.38;;;;;;;;;;4946833;28;20774;-75
2021/06/13 01:01:34;;;;;;;3.20;1.25;;;;;;;;;;4946917;28;20066;-74
2021/06/13 01:04:01;;;;;;;5.95;1.60;;;;;;;;;;4944867;28;20078;-74
2021/06/13 01:06:46;;;;;;;3.22;1.30;;;;;;;;;;4943817;28;20586;-75
2021/06/13 01:09:15;;;;;;;5.55;1.25;;;;;;;;;;4947690;28;20059;-75
2021/06/13 01:12:02;;;;;;;3.47;1.40;;;;;;;;;;4945530;28;20071;-75
2021/06/13 01:14:36;;;;;;;3.33;1.48;;;;;;;;;;4944289;28;20146;-74
2021/06/13 01:17:02;;;;;;;3.88;1.33;;;;;;;;;;4943819;28;20075;-75
2021/06/13 01:19:44;;;;;;;4.28;1.40;;;;;;;;;;4945231;28;20922;-74
2021/06/13 01:22:10;;;;;;;;;;;;;;;;;;4945615;28;20071;-75
2021/06/13 01:24:42;;;;;;;3.78;1.30;;;;;;;;;;4947566;28;19961;-75
2021/06/13 01:27:28;;;;;;;3.60;1.35;;;;;;;;;;4942781;28;20059;-75
2021/06/13 01:29:56;;;;;;;5.90;1.52;;;;;;;;;;4936126;28;20135;-75
2021/06/13 01:32:24;;;;;;;3.10;1.30;;;;;;;;;;4923411;28;20055;-75
2021/06/13 01:34:53;;;;;;;3.08;1.30;;;;;;;;;;4922978;28;20540;-74
2021/06/13 01:37:22;;;;;;;7.38;1.50;;;;;;;;;;4929277;28;20060;-75
2021/06/13 01:39:52;;;;;;;5.30;1.48;;;;;;;;;;4928806;28;20110;-76
2021/06/13 01:42:19;;;;;;;4.22;1.40;;;;;;;;;;4943933;28;20870;-75
2021/06/13 01:44:46;;;;;;;4.65;1.50;;;;;;;;;;4943381;28;20063;-75
2021/06/13 01:47:13;;;;;;;4.03;1.30;;;;;;;;;;4951145;28;20125;-76
2021/06/13 01:49:40;;;;;;;3.30;1.23;;;;;;;;;;4952381;28;20051;-75
2021/06/13 01:52:08;;;;;;;4.07;1.45;;;;;;;;;;4934374;28;20144;-75
2021/06/13 01:54:35;;;;;;;4.38;1.63;;;;;;;;;;4949881;28;20067;-75
2021/06/13 01:57:01;;;;;;;6.05;1.50;;;;;;;;;;4946467;28;20079;-75
2021/06/13 01:59:28;;;;;;;3.90;1.30;;;;;;;;;;4950636;28;20059;-75
2021/06/13 02:01:58;;;;;;;5.63;1.42;;;;;;;;;;4946005;28;20689;-75
2021/06/13 02:04:26;;;;;;;6.07;1.50;;;;;;;;;;4946499;28;20671;-75
2021/06/13 02:06:58;;;;;;;3.75;1.42;;;;;;;;;;4945332;28;20059;-75
2021/06/13 02:09:25;;;;;;;4.18;1.30;;;;;;;;;;4943287;28;20126;-75
2021/06/13 02:11:52;;;;;;;4.55;1.20;;;;;;;;;;4945074;28;20062;-75
2021/06/13 02:14:19;;;;;;;4.90;1.60;;;;;;;;;;4951475;28;20079;-75
2021/06/13 02:16:46;;;;;;;4.95;1.40;;;;;;;;;;4947575;28;20063;-75
2021/06/13 02:19:15;;;;;;;4.88;1.50;;;;;;;;;;4949211;28;20059;-74
2021/06/13 02:21:44;;;;;;;4.72;1.30;;;;;;;;;;4945053;28;20047;-74
2021/06/13 02:24:11;;;;;;;3.35;1.15;;;;;;;;;;4946992;28;20511;-74
2021/06/13 02:26:40;;;;;;;6.13;1.35;;;;;;;;;;4942687;28;20067;-74
2021/06/13 02:29:07;;;;;;;4.88;1.40;;;;;;;;;;4945333;28;20063;-74
2021/06/13 02:31:34;;;;;;;4.25;1.25;;;;;;;;;;4951522;28;20067;-73
2021/06/13 02:34:02;;;;;;;3.22;1.10;;;;;;;;;;4943319;28;20119;-75
2021/06/13 02:36:28;;;;;;;2.78;1.05;;;;;;;;;;4948231;28;20177;-75
2021/06/13 02:38:55;;;;;;;4.43;1.13;;;;;;;;;;4943887;28;20067;-73
2021/06/13 02:41:22;;;;;;;4.53;1.10;;;;;;;;;;4937206;28;22364;-74
2021/06/13 02:43:48;;;;;;;4.18;1.27;;;;;;;;;;4939097;28;20632;-74
2021/06/13 02:46:15;;;;;;;4.72;1.20;;;;;;;;;;4954975;28;20059;-74
2021/06/13 02:48:41;;;;;;;5.45;1.38;;;;;;;;;;4939687;28;20130;-74
2021/06/13 02:51:08;;;;;;;4.70;1.58;;;;;;;;;;4941956;28;20067;-75
2021/06/13 02:53:43;;;;;;;5.15;1.52;;;;;;;;;;4946041;28;20074;-75
2021/06/13 02:56:23;;;;;;;5.55;1.40;;;;;;;;;;4926475;28;20079;-74
2021/06/13 02:58:55;;;;;;;4.68;1.35;;;;;;;;;;4940009;28;20071;-75
2021/06/13 03:01:22;;;;;;;4.28;1.10;;;;;;;;;;4943301;28;22333;-75
2021/06/13 03:03:50;;;;;;;3.25;1.30;;;;;;;;;;4952333;28;20105;-74
2021/06/13 03:06:19;;;;;;;3.97;1.33;;;;;;;;;;4921135;28;20512;-75
2021/06/13 03:08:46;;;;;;;3.90;1.40;;;;;;;;;;4923667;28;20071;-75
2021/06/13 03:11:13;;;;;;;3.17;1.27;;;;;;;;;;4934582;28;20066;-75
2021/06/13 03:13:41;;;;;;;3.45;1.08;;;;;;;;;;4943981;28;20514;-75
2021/06/13 03:16:09;;;;;;;3.80;1.17;;;;;;;;;;4948431;28;20063;-75
2021/06/13 03:18:36;;;;;;;4.60;1.50;;;;;;;;;;4944135;28;20133;-75
2021/06/13 03:21:04;;;;;;;6.22;1.50;;;;;;;;;;4944137;28;20058;-75
2021/06/13 03:23:32;;;;;;;5.45;1.50;;;;;;;;;;4942337;28;20527;-75
2021/06/13 03:26:01;;;;;;;3.17;1.30;;;;;;;;;;4941685;28;20488;-74
2021/06/13 03:28:29;;;;;;;2.47;0.90;;;;;;;;;;4952013;28;20476;-75
2021/06/13 03:30:56;;;;;;;3.65;1.20;;;;;;;;;;4943382;28;20086;-74
2021/06/13 03:33:23;;;;;;;5.00;1.40;;;;;;;;;;4942838;28;20212;-75
2021/06/13 03:35:49;;;;;;;3.97;1.33;;;;;;;;;;4948595;28;20546;-75
2021/06/13 03:38:16;;;;;;;4.45;1.40;;;;;;;;;;4945411;28;20066;-76
2021/06/13 03:40:43;;;;;;;5.45;1.35;;;;;;;;;;4947391;28;20039;-75
2021/06/13 03:43:09;;;;;;;3.58;1.60;;;;;;;;;;4947716;28;20074;-75
2021/06/13 03:45:36;;;;;;;4.05;1.08;;;;;;;;;;4946924;28;20082;-74
2021/06/13 03:48:03;;;;;;;4.28;1.38;;;;;;;;;;4946646;28;20070;-75
2021/06/13 03:50:31;;;;;;;6.25;1.17;;;;;;;;;;4950934;28;20075;-75
2021/06/13 03:52:59;;;;;;;6.75;1.65;;;;;;;;;;4943052;28;20067;-75
2021/06/13 03:55:26;;;;;;;4.20;1.10;;;;;;;;;;4955537;28;20074;-75
2021/06/13 03:57:54;;;;;;;3.35;1.10;;;;;;;;;;4947764;28;20063;-74
2021/06/13 04:00:23;;;;;;;3.63;1.10;;;;;;;;;;4943504;28;20066;-75
2021/06/13 04:02:50;;;;;;;4.13;1.10;;;;;;;;;;4947134;28;20062;-75
2021/06/13 04:05:18;;;;;;;3.28;1.13;;;;;;;;;;4945885;28;20082;-75
2021/06/13 04:07:44;;;;;;;4.75;1.27;;;;;;;;;;4948647;28;20070;-75
2021/06/13 04:10:11;;;;;;;3.97;1.10;;;;;;;;;;4947534;28;20063;-76
2021/06/13 04:12:38;;;;;;;2.15;0.90;;;;;;;;;;4947347;28;20058;-76
2021/06/13 04:15:05;;;;;;;4.07;1.30;;;;;;;;;;4951647;28;20114;-76
2021/06/13 04:17:32;;;;;;;4.40;1.50;;;;;;;;;;4952343;28;20071;-73
2021/06/13 04:20:00;;;;;;;4.78;1.30;;;;;;;;;;4944133;28;20078;-74
2021/06/13 04:22:27;;;;;;;4.68;1.25;;;;;;;;;;4937936;28;20150;-74
2021/06/13 04:24:54;;;;;;;3.42;1.20;;;;;;;;;;4947578;28;20435;-75
2021/06/13 04:27:22;;;;;;;5.18;1.40;;;;;;;;;;4937257;28;20125;-74
2021/06/13 04:29:48;;;;;;;7.47;1.40;;;;;;;;;;4948651;28;20098;-74
2021/06/13 04:32:15;;;;;;;4.13;1.30;;;;;;;;;;4943869;28;20058;-74
2021/06/13 04:34:42;;;;;;;4.32;1.10;;;;;;;;;;4947533;28;20089;-75
2021/06/13 04:37:09;;;;;;;4.40;1.27;;;;;;;;;;4953556;28;20554;-73
2021/06/13 04:39:36;;;;;;;3.50;1.20;;;;;;;;;;4950383;28;20079;-73
2021/06/13 04:42:05;;;;;;;3.63;1.10;;;;;;;;;;4941482;28;20066;-74
2021/06/13 04:44:31;;;;;;;5.93;1.50;;;;;;;;;;4950467;28;20066;-74
2021/06/13 04:46:57;;;;;;;4.78;1.20;;;;;;;;;;4945368;28;20637;-74
2021/06/13 04:49:24;;;;;;;5.05;1.33;;;;;;;;;;4952847;28;20055;-74
2021/06/13 04:51:51;;;;;;;4.75;1.40;;;;;;;;;;4949715;28;20066;-74
2021/06/13 04:54:36;;;;;;;4.95;1.20;;;;;;;;;;4946564;28;20070;-74
2021/06/13 04:57:06;;;;;;;3.67;1.30;;;;;;;;;;4947065;28;20114;-74
2021/06/13 04:59:32;;;;;;;3.10;1.17;;;;;;;;;;4947493;28;20066;-74
2021/06/13 05:02:02;;;;;;;4.22;1.30;;;;;;;;;;4946296;28;20082;-75
2021/06/13 05:04:28;;;;;;;3.53;0.80;;;;;;;;;;4947385;28;20195;-75
2021/06/13 05:06:56;;;;;;;3.63;1.23;;;;;;;;;;4945688;28;20582;-75
2021/06/13 05:09:22;;;;;;;5.03;1.20;;;;;;;;;;4942886;28;20146;-75
2021/06/13 05:11:49;;;;;;;4.35;1.35;;;;;;;;;;4946794;28;20059;-75
2021/06/13 05:14:15;;;;;;;3.28;0.95;;;;;;;;;;4944356;28;20622;-75
2021/06/13 05:16:42;;;;;;;4.78;1.20;;;;;;;;;;4948116;28;20140;-75
2021/06/13 05:19:09;;;;;;;3.15;1.00;;;;;;;;;;4952900;28;20070;-74
2021/06/13 05:21:35;;;;;;;3.80;1.05;;;;;;;;;;4946723;28;20607;-74
2021/06/13 05:24:02;;;;;;;4.20;1.05;;;;;;;;;;4944479;28;20067;-74
2021/06/13 05:26:28;;;;;;;3.83;1.27;;;;;;;;;;4940021;28;20055;-73
2021/06/13 05:28:55;;;;;;;3.97;1.35;;;;;;;;;;4936347;28;20063;-73
2021/06/13 05:31:21;;;;;;;3.83;1.30;;;;;;;;;;4933538;28;20082;-74
2021/06/13 05:33:48;;;;;;;4.43;1.48;;;;;;;;;;4939671;28;20059;-74
2021/06/13 05:36:14;;;;;;;4.05;1.20;;;;;;;;;;4944572;28;20069;-74
2021/06/13 05:38:43;;;;;;;4.63;1.30;;;;;;;;;;4945045;28;20436;-75
2021/06/13 05:41:10;;;;;;;3.53;1.10;;;;;;;;;;4944663;28;20823;-75
2021/06/13 05:43:36;;;;;;;6.25;1.13;;;;;;;;;;4943461;28;20732;-75
2021/06/13 05:46:03;;;;;;;3.70;1.20;;;;;;;;;;4941474;28;20062;-75
2021/06/13 05:48:29;;;;;;;4.00;1.40;;;;;;;;;;4939349;28;20655;-75
2021/06/13 05:50:56;;;;;;;3.60;1.33;;;;;;;;;;4952560;28;20067;-75
2021/06/13 05:53:22;;;;;;;3.42;1.05;;;;;;;;;;4944022;28;20471;-74
2021/06/13 05:55:49;;;;;;;3.42;0.95;;;;;;;;;;4952773;28;20070;-75
2021/06/13 05:58:15;;;;;;;5.72;1.40;;;;;;;;;;4946380;28;20070;-76
2021/06/13 06:00:42;;;;;;;3.55;1.20;;;;;;;;;;4944132;28;20078;-75
2021/06/13 06:03:08;;;;;;;3.50;1.20;;;;;;;;;;4932162;28;20071;-75
2021/06/13 06:05:35;;;;;;;4.88;1.02;;;;;;;;;;4946050;28;20424;-75
2021/06/13 06:08:02;;;;;;;4.68;1.38;;;;;;;;;;4942586;28;20117;-75
2021/06/13 06:10:29;;;;;;;5.03;1.27;;;;;;;;;;4942445;28;20786;-75
2021/06/13 06:12:56;;;;;;;3.42;1.10;;;;;;;;;;4943406;28;20063;-75
2021/06/13 06:15:23;;;;;;;3.55;1.13;;;;;;;;;;4952226;28;21391;-75
2021/06/13 06:17:50;;;;;;;2.83;1.05;;;;;;;;;;4940881;28;20078;-75
2021/06/13 06:20:18;;;;;;;3.03;0.95;;;;;;;;;;4946792;28;20063;-74
2021/06/13 06:22:45;;;;;;;5.32;1.05;;;;;;;;;;4941309;28;20849;-76
2021/06/13 06:25:12;;;;;;;2.95;0.88;;;;;;;;;;4940360;28;20090;-76
2021/06/13 06:27:38;;;;;;;5.03;1.33;;;;;;;;;;4944953;28;20195;-75
2021/06/13 06:30:09;;;;;;;4.03;1.10;;;;;;;;;;4952366;28;20060;-74
2021/06/13 06:32:35;;;;;;;2.53;1.00;;;;;;;;;;4938751;28;20130;-74
2021/06/13 06:35:01;;;;;;;4.32;1.23;;;;;;;;;;4925206;28;20051;-74
2021/06/13 06:37:28;;;;;;;2.65;1.17;;;;;;;;;;4932170;28;20058;-76
2021/06/13 06:39:54;;;;;;;4.30;1.10;;;;;;;;;;4945213;28;20071;-74
2021/06/13 06:42:21;;;;;;;4.72;1.30;;;;;;;;;;4943984;28;20058;-74
2021/06/13 06:44:47;;;;;;;4.70;1.10;;;;;;;;;;4945509;28;20577;-74
2021/06/13 06:47:13;;;;;;;2.78;0.95;;;;;;;;;;4943629;28;20086;-74
2021/06/13 06:49:40;;;;;;;2.88;0.98;;;;;;;;;;4942431;28;20098;-74
2021/06/13 06:52:06;;;;;;;3.60;1.00;;;;;;;;;;4939965;28;20071;-75
2021/06/13 06:54:33;;;;;;;4.30;1.00;;;;;;;;;;4944395;28;20069;-75
2021/06/13 06:57:00;;;;;;;3.08;1.05;;;;;;;;;;4943798;28;20497;-76
2021/06/13 06:59:26;;;;;;;3.72;0.90;;;;;;;;;;4943543;28;20063;-73
2021/06/13 07:01:52;;;;;;;3.88;1.00;;;;;;;;;;4941642;28;20704;-72
2021/06/13 07:04:19;;;;;;;3.70;1.25;;;;;;;;;;4947523;28;20790;-72
2021/06/13 07:06:45;;;;;;;7.22;1.45;;;;;;;;;;4943133;28;20070;-71
2021/06/13 07:09:12;;;;;;;5.00;1.10;;;;;;;;;;4942667;28;20071;-72
2021/06/13 07:11:38;;;;;;;4.07;1.20;;;;;;;;;;4945415;28;20475;-71
2021/06/13 07:14:05;;;;;;;5.10;1.40;;;;;;;;;;4945915;28;20078;-72
2021/06/13 07:16:31;;;;;;;4.15;1.50;;;;;;;;;;4944782;28;20139;-71
2021/06/13 07:18:59;;;;;;;4.97;1.23;;;;;;;;;;4928114;28;20151;-71
2021/06/13 07:21:25;;;;;;;4.25;1.02;;;;;;;;;;4948171;28;20055;-70
2021/06/13 07:23:51;;;;;;;5.03;1.50;;;;;;;;;;4945297;28;20219;-71
2021/06/13 07:26:18;;;;;;;5.47;1.48;;;;;;;;;;4944755;28;20063;-72
2021/06/13 07:28:44;;;;;;;4.95;1.27;;;;;;;;;;4946283;28;20136;-70
2021/06/13 07:31:11;;;;;;;3.55;1.33;;;;;;;;;;4944138;28;20117;-70
2021/06/13 07:33:37;;;;;;;5.25;1.63;;;;;;;;;;4944815;28;20778;-71
2021/06/13 07:36:05;;;;;;;6.28;1.65;;;;;;;;;;4944807;28;20071;-72
2021/06/13 07:38:32;;;;;;;4.28;1.38;;;;;;;;;;4945751;28;20062;-71
2021/06/13 07:40:58;;;;;;;4.80;1.45;;;;;;;;;;4945250;28;20077;-73
2021/06/13 07:43:25;;;;;;;6.05;1.55;;;;;;;;;;4945232;28;20059;-71
2021/06/13 07:45:52;;;;;;;8.38;2.17;;;;;;;;;;4945020;28;20074;-72
2021/06/13 07:48:19;;;;;;;4.55;1.73;;;;;;;;;;4943651;28;20141;-72
2021/06/13 07:50:45;;;;;;;6.78;1.75;;;;;;;;;;4945459;28;20067;-71
2021/06/13 07:53:12;;;;;;;5.75;1.63;;;;;;;;;;4938089;28;20562;-70
2021/06/13 07:55:39;;;;;;;4.38;1.45;;;;;;;;;;4943658;28;20505;-70
2021/06/13 07:58:06;;;;;;;4.85;1.60;;;;;;;;;;4948890;28;20070;-71
2021/06/13 08:00:33;;;;;;;3.85;1.30;;;;;;;;;;4948970;28;20130;-72
2021/06/13 08:02:59;;;;;;;5.75;1.60;;;;;;;;;;4950401;28;20059;-73
2021/06/13 08:05:27;;;;;;;8.10;1.48;;;;;;;;;;4950750;28;20067;-72
2021/06/13 08:08:01;;;;;;;5.20;1.63;;;;;;;;;;4946939;28;20046;-71
2021/06/13 08:10:28;;;;;;;5.50;2.00;;;;;;;;;;4949528;28;21745;-70
2021/06/13 08:12:55;;;;;;;4.85;1.85;;;;;;;;;;4949418;28;20059;-70
2021/06/13 08:15:21;;;;;;;4.75;1.45;;;;;;;;;;4949313;28;20476;-72
2021/06/13 08:17:48;;;;;;;4.97;1.48;;;;;;;;;;4949802;28;20063;-72
2021/06/13 08:20:15;;;;;;;6.30;1.63;;;;;;;;;;4947485;28;20574;-72
2021/06/13 08:22:42;;;;;;;5.43;1.65;;;;;;;;;;4947857;28;20194;-70
2021/06/13 08:25:10;;;;;;;6.65;1.70;;;;;;;;;;4948359;28;20042;-71
2021/06/13 08:27:37;;;;;;;6.47;1.58;;;;;;;;;;4947039;28;20051;-71
2021/06/13 08:30:04;;;;;;;5.28;1.52;;;;;;;;;;4948088;28;20949;-70
2021/06/13 08:32:31;;;;;;;6.70;1.65;;;;;;;;;;4960577;28;20122;-69
2021/06/13 08:34:57;;;;;;;7.75;1.88;;;;;;;;;;4947588;28;20058;-69
2021/06/13 08:37:24;;;;;;;9.25;2.00;;;;;;;;;;4945421;28;22382;-70
2021/06/13 08:39:50;;;;;;;5.03;1.42;;;;;;;;;;4948945;28;20062;-70
2021/06/13 08:42:17;;;;;;;10.10;1.50;;;;;;;;;;4947236;28;20055;-70
2021/06/13 08:44:44;;;;;;;5.03;1.70;;;;;;;;;;4950046;28;20047;-69
2021/06/13 08:47:16;;;;;;;6.93;1.83;;;;;;;;;;4944988;28;20452;-69
2021/06/13 08:49:42;;;;;;;9.93;1.88;;;;;;;;;;4949134;28;20390;-70
2021/06/13 08:52:09;;;;;;;8.35;1.75;;;;;;;;;;4953221;28;20051;-70
2021/06/13 08:54:36;;;;;;;5.63;1.60;;;;;;;;;;4942050;28;20151;-70
2021/06/13 08:57:03;;;;;;;3.03;1.05;;;;;;;;;;4952392;28;20125;-71
2021/06/13 08:59:29;;;;;;;6.00;1.35;;;;;;;;;;4949686;28;20087;-72
2021/06/13 09:01:56;;;;;;;4.18;1.17;;;;;;;;;;4949680;28;20062;-74
2021/06/13 09:04:23;;;;;;;2.80;1.10;;;;;;;;;;4948031;28;20114;-75
2021/06/13 09:06:50;;;;;;;3.92;1.23;;;;;;;;;;4948660;28;20031;-75
2021/06/13 09:09:18;;;;;;;5.03;1.33;;;;;;;;;;4946869;28;20109;-74
2021/06/13 09:11:57;;;;;;;5.07;1.50;;;;;;;;;;4948008;28;20063;-74
2021/06/13 09:14:23;;;;;;;6.97;1.45;;;;;;;;;;4946904;28;20578;-74
2021/06/13 09:16:49;;;;;;;4.05;1.20;;;;;;;;;;4948501;28;20503;-74
2021/06/13 09:19:16;;;;;;;5.38;1.30;;;;;;;;;;4947069;28;20129;-74
2021/06/13 09:21:42;;;;;;;6.57;1.50;;;;;;;;;;4947039;28;20079;-74
2021/06/13 09:24:18;;;;;;;4.30;1.38;;;;;;;;;;4945936;28;20052;-74
2021/06/13 09:26:44;;;;;;;5.22;1.17;;;;;;;;;;4945722;28;20113;-74
2021/06/13 09:29:11;;;;;;;5.00;1.25;;;;;;;;;;4945219;28;20058;-74
2021/06/13 09:31:37;;;;;;;4.05;1.00;;;;;;;;;;4943798;28;20074;-73
2021/06/13 09:34:08;;;;;;;3.95;1.30;;;;;;;;;;4944699;28;20195;-73
2021/06/13 09:36:35;;;;;;;4.63;1.27;;;;;;;;;;4945616;28;20075;-74
2021/06/13 09:39:06;;;;;;;5.10;1.33;;;;;;;;;;4947627;28;20073;-74
2021/06/13 09:41:34;;;;;;;3.80;1.10;;;;;;;;;;4947350;28;20070;-72
2021/06/13 09:44:02;;;;;;;4.55;1.27;;;;;;;;;;4947697;28;20051;-73
2021/06/13 09:46:30;;;;;;;5.53;1.20;;;;;;;;;;4947151;28;20479;-75
2021/06/13 09:49:02;;;;;;;7.50;1.27;;;;;;;;;;4948639;28;20134;-75
2021/06/13 09:51:33;;;;;;;4.32;1.20;;;;;;;;;;4946077;28;20448;-75
2021/06/13 09:54:01;;;;;;;5.28;1.48;;;;;;;;;;4959017;28;20513;-75
2021/06/13 09:56:27;;;;;;;5.70;1.40;;;;;;;;;;4948225;28;20067;-76
2021/06/13 09:59:06;;;;;;;3.90;1.27;;;;;;;;;;4946813;28;20066;-75
2021/06/13 10:01:35;;;;;;;3.95;1.00;;;;;;;;;;4946249;28;21360;-75
2021/06/13 10:04:02;;;;;;;6.95;1.55;;;;;;;;;;4937426;28;20055;-76
2021/06/13 10:06:30;;;;;;;4.60;1.27;;;;;;;;;;4926080;29;20043;-76
2021/06/13 10:08:56;;;;;;;4.93;1.20;;;;;;;;;;4929218;29;20079;-76
2021/06/13 10:11:23;;;;;;;4.30;1.30;;;;;;;;;;4950193;28;20578;-76
2021/06/13 10:13:56;;;;;;;2.45;0.95;;;;;;;;;;4940057;28;20129;-75
2021/06/13 10:16:26;;;;;;;5.65;1.25;;;;;;;;;;4958494;28;20074;-74
2021/06/13 10:18:53;;;;;;;4.18;1.00;;;;;;;;;;4962296;28;20086;-75
2021/06/13 10:21:20;;;;;;;5.70;1.10;;;;;;;;;;4940690;28;20091;-75
2021/06/13 10:23:46;;;;;;;8.35;1.20;;;;;;;;;;4929902;28;20097;-73
2021/06/13 10:26:13;;;;;;;2.78;0.90;;;;;;;;;;4916695;28;20039;-75
2021/06/13 10:28:39;;;;;;;6.47;1.30;;;;;;;;;;4950216;28;20028;-76
2021/06/13 10:31:06;;;;;;;3.60;0.77;;;;;;;;;;4947099;28;20515;-74
2021/06/13 10:33:32;;;;;;;5.97;1.25;;;;;;;;;;4950023;28;20055;-76
2021/06/13 10:36:02;;;;;;;3.78;1.05;;;;;;;;;;4948142;28;20071;-75
2021/06/13 10:38:29;;;;;;;6.55;1.15;;;;;;;;;;4946790;28;20067;-75
2021/06/13 10:40:59;;;;;;;3.15;1.08;;;;;;;;;;4949629;28;20059;-74
2021/06/13 10:43:27;;;;;;;2.45;1.20;;;;;;;;;;4946026;28;20039;-76
2021/06/13 10:46:03;;;;;;;3.65;1.10;;;;;;;;;;4944712;28;20067;-76
2021/06/13 10:48:35;;;;;;;4.18;1.05;;;;;;;;;;4931959;28;21294;-72
2021/06/13 10:51:22;;;;;;;4.55;1.00;;;;;;;;;;4948649;28;20554;-75
2021/06/13 10:53:48;;;;;;;5.03;1.13;;;;;;;;;;4950886;28;20106;-73
2021/06/13 10:56:23;;;;;;;3.47;0.85;;;;;;;;;;4931759;28;20086;-76
2021/06/13 10:58:53;;;;;;;7.00;1.25;;;;;;;;;;4934907;28;20063;-76
2021/06/13 11:01:24;;;;;;;3.38;1.13;;;;;;;;;;4938746;28;20519;-74
2021/06/13 11:03:59;;;;;;;4.40;1.00;;;;;;;;;;4933120;28;20067;-74
2021/06/13 11:06:37;;;;;;;5.43;1.10;;;;;;;;;;4948376;28;21615;-73
2021/06/13 11:09:06;;;;;;;3.10;0.90;;;;;;;;;;4947544;28;20558;-75
2021/06/13 11:11:39;;;;;;;3.65;0.98;;;;;;;;;;4948723;28;20059;-77
2021/06/13 11:14:23;;;;;;;2.90;0.98;;;;;;;;;;4947364;28;20370;-79
2021/06/13 11:16:50;;;;;;;5.63;1.17;;;;;;;;;;4931978;28;20040;-80
2021/06/13 11:19:26;;;;;;;5.75;1.30;;;;;;;;;;4944799;28;20073;-81
2021/06/13 11:22:11;;;;;;;3.45;0.98;;;;;;;;;;4938470;28;20103;-78
2021/06/13 11:24:51;;;;;;;3.70;1.13;;;;;;;;;;4949408;28;22328;-77
2021/06/13 11:27:18;;;;;;;4.85;1.23;;;;;;;;;;4951048;28;20110;-78
2021/06/13 11:29:53;;;;;;;2.92;1.00;;;;;;;;;;4949571;28;20066;-78
2021/06/13 11:32:49;;;;;;;3.28;0.95;;;;;;;;;;4949225;28;20074;-77
2021/06/13 11:35:22;;;;;;;4.35;0.93;;;;;;;;;;4944373;28;20106;-78
2021/06/13 11:37:51;;;;;;;7.05;0.90;;;;;;;;;;4950238;28;20074;-76
2021/06/13 11:40:30;;;;;;;3.65;1.10;;;;;;;;;;4948687;28;20201;-77
2021/06/13 11:43:10;;;;;;;3.97;1.00;;;;;;;;;;4950092;28;20059;-77
2021/06/13 11:45:36;;;;;;;4.82;1.17;;;;;;;;;;4945262;28;21269;-77
2021/06/13 11:48:23;;;;;;;4.32;1.17;;;;;;;;;;4949614;28;20059;-76
2021/06/13 11:51:04;;;;;;;3.30;1.13;;;;;;;;;;4944271;28;20071;-77
2021/06/13 11:53:49;;;;;;;4.13;0.98;;;;;;;;;;4945905;28;20502;-77
2021/06/13 11:56:33;;;;;;;2.95;1.00;;;;;;;;;;4946094;28;20075;-77
2021/06/13 11:59:01;;;;;;;3.25;1.10;;;;;;;;;;4934390;28;20529;-77
2021/06/13 12:01:27;;;;;;;5.75;1.45;;;;;;;;;;4925109;28;20075;-77
2021/06/13 12:03:55;;;;;;;4.13;1.42;;;;;;;;;;4929961;28;20122;-76
2021/06/13 12:06:22;;;;;;;4.07;1.52;;;;;;;;;;4949947;28;20042;-78
2021/06/13 12:08:49;;;;;;;4.97;1.65;;;;;;;;;;4950623;28;20071;-76
2021/06/13 12:11:36;;;;;;;3.53;1.25;;;;;;;;;;4954974;28;20511;-75
2021/06/13 12:14:19;;;;;;;5.63;1.50;;;;;;;;;;4947787;28;20035;-76
2021/06/13 12:16:46;;;;;;;5.80;1.42;;;;;;;;;;4950757;28;20130;-76
2021/06/13 12:19:13;;;;;;;5.72;1.30;;;;;;;;;;4962883;28;20071;-77
2021/06/13 12:21:39;;;;;;;5.38;1.40;;;;;;;;;;4959721;28;20607;-77
2021/06/13 12:24:39;;;;;;;5.43;1.42;;;;;;;;;;4950771;28;20043;-77
2021/06/13 12:27:32;;;;;;;5.13;1.33;;;;;;;;;;4949919;28;20105;-77
2021/06/13 12:30:00;;;;;;;3.72;1.77;;;;;;;;;;4951531;28;20058;-77
2021/06/13 12:32:27;;;;;;;3.58;1.42;;;;;;;;;;4950043;28;20124;-75
2021/06/13 12:35:08;;;;;;;5.15;1.20;;;;;;;;;;4954994;28;20043;-76
2021/06/13 12:37:34;;;;;;;7.47;1.70;;;;;;;;;;4955032;28;21307;-76
2021/06/13 12:40:06;;;;;;;7.95;1.70;;;;;;;;;;4950292;28;20528;-76
2021/06/13 12:42:33;;;;;;;4.45;1.42;;;;;;;;;;4950779;28;20055;-76
2021/06/13 12:45:10;;;;;;;10.65;1.60;;;;;;;;;;4947802;28;20047;-76
2021/06/13 12:47:40;;;;;;;4.63;1.73;;;;;;;;;;4949921;28;20050;-76
2021/06/13 12:50:07;;;;;;;5.03;1.52;;;;;;;;;;4949944;28;20091;-77
2021/06/13 12:52:36;;;;;;;4.50;1.77;;;;;;;;;;4950624;28;20062;-77
2021/06/13 12:55:07;;;;;;;5.43;1.65;;;;;;;;;;4947299;28;20066;-77
2021/06/13 12:57:34;;;;;;;5.35;1.30;;;;;;;;;;4951163;28;20078;-77
2021/06/13 13:00:01;;;;;;;3.20;1.30;;;;;;;;;;4948610;28;20039;-77
2021/06/13 13:02:28;;;;;;;6.97;1.77;;;;;;;;;;4950470;28;20062;-76
2021/06/13 13:04:55;;;;;;;5.93;1.38;;;;;;;;;;4957288;28;20058;-77
2021/06/13 13:07:29;;;;;;;5.97;1.58;;;;;;;;;;4952215;28;20431;-75
2021/06/13 13:10:09;;;;;;;4.35;1.23;;;;;;;;;;4951001;28;20094;-77
2021/06/13 13:12:50;;;;;;;4.13;1.70;;;;;;;;;;4955333;28;21325;-75
2021/06/13 13:15:24;;;;;;;3.47;1.45;;;;;;;;;;4951021;28;20054;-77
2021/06/13 13:17:51;;;;;;;2.80;1.27;;;;;;;;;;4949212;28;20074;-75
2021/06/13 13:20:21;;;;;;;3.92;1.30;;;;;;;;;;4948272;28;20063;-76
2021/06/13 13:22:48;;;;;;;2.60;1.27;;;;;;;;;;4949938;28;20074;-76
2021/06/13 13:25:19;;;;;;;6.68;1.50;;;;;;;;;;4948576;28;20074;-76
2021/06/13 13:27:45;;;;;;;4.60;1.50;;;;;;;;;;4950333;28;20070;-76
2021/06/13 13:30:25;;;;;;;3.83;1.20;;;;;;;;;;4949653;28;20086;-76
2021/06/13 13:32:55;;;;;;;2.22;1.17;;;;;;;;;;4951430;28;20696;-75
2021/06/13 13:35:35;;;;;;;3.47;1.27;;;;;;;;;;4952958;28;20062;-76
2021/06/13 13:38:02;;;;;;;3.03;1.25;;;;;;;;;;4948622;28;20058;-76
2021/06/13 13:40:29;;;;;;;4.78;1.40;;;;;;;;;;4949406;28;20130;-76
2021/06/13 13:43:17;;;;;;;3.92;1.38;;;;;;;;;;4949014;28;20129;-75
2021/06/13 13:45:43;;;;;;;2.60;1.17;;;;;;;;;;4931403;28;20404;-76
2021/06/13 13:48:15;;;;;;;3.53;1.40;;;;;;;;;;4949010;28;20054;-76
2021/06/13 13:50:52;;;;;;;4.45;1.45;;;;;;;;;;4949427;28;20078;-76
2021/06/13 13:53:26;;;;;;;3.65;1.42;;;;;;;;;;4950315;28;20063;-76
2021/06/13 13:55:56;;;;;;;3.53;1.35;;;;;;;;;;4941166;28;20858;-76
2021/06/13 13:58:24;;;;;;;2.97;1.50;;;;;;;;;;4952436;28;20067;-77
2021/06/13 14:00:55;;;;;;;4.15;1.67;;;;;;;;;;4949027;28;20046;-76
2021/06/13 14:03:22;;;;;;;4.78;1.40;;;;;;;;;;4955636;28;20062;-76
2021/06/13 14:05:49;;;;;;;4.03;1.35;;;;;;;;;;4952485;28;20054;-76
2021/06/13 14:08:15;;;;;;;3.47;1.40;;;;;;;;;;4927871;28;20075;-76
2021/06/13 14:10:42;;;;;;;4.40;1.58;;;;;;;;;;4944548;28;20059;-77
2021/06/13 14:13:08;;;;;;;3.45;1.55;;;;;;;;;;4949056;28;20051;-75
2021/06/13 14:15:35;;;;;;;3.00;1.30;;;;;;;;;;4954637;28;20093;-76
2021/06/13 14:18:04;;;;;;;4.28;1.45;;;;;;;;;;4944925;28;20075;-77
2021/06/13 14:20:30;;;;;;;3.08;1.50;;;;;;;;;;4953919;28;20444;-76
2021/06/13 14:22:57;;;;;;;3.83;1.45;;;;;;;;;;4957976;28;20459;-76
2021/06/13 14:25:24;;;;;;;4.13;1.77;;;;;;;;;;4958023;28;20132;-76
2021/06/13 14:27:51;;;;;;;5.80;1.60;;;;;;;;;;4953843;28;20109;-76
2021/06/13 14:30:18;;;;;;;3.55;1.33;;;;;;;;;;4951068;28;20059;-77
2021/06/13 14:32:45;;;;;;;3.80;1.58;;;;;;;;;;4956040;28;20511;-77
2021/06/13 14:35:12;;;;;;;3.13;1.50;;;;;;;;;;4946468;28;20503;-77
2021/06/13 14:37:39;;;;;;;3.03;1.63;;;;;;;;;;4959139;28;20515;-76
2021/06/13 14:40:10;;;;;;;4.53;1.60;;;;;;;;;;4948345;28;20059;-77
2021/06/13 14:42:37;;;;;;;6.40;1.50;;;;;;;;;;4946418;28;20452;-76
2021/06/13 14:45:05;;;;;;;4.80;1.52;;;;;;;;;;4938696;28;20145;-75
2021/06/13 14:47:31;;;;;;;6.13;1.80;;;;;;;;;;4948372;28;20109;-76
2021/06/13 14:49:58;;;;;;;3.38;1.67;;;;;;;;;;4949207;28;20060;-76
2021/06/13 14:52:25;;;;;;;4.15;1.63;;;;;;;;;;4953558;28;20066;-75